createdAt,value
2022-09-15T00:01:11.196Z,17.85
2022-09-15T00:03:38.381Z,17.88
2022-09-15T00:06:06.045Z,17.93
2022-09-15T00:08:32.993Z,17.92
2022-09-15T00:11:20.701Z,17.78
2022-09-15T00:13:48.153Z,17.73
2022-09-15T00:16:15.841Z,17.74
2022-09-15T00:18:43.635Z,17.68
2022-09-15T00:21:14.080Z,17.75
2022-09-15T00:23:41.025Z,17.66
2022-09-15T00:26:10.730Z,17.64
2022-09-15T00:28:37.835Z,17.58
2022-09-15T00:31:10.173Z,17.72
2022-09-15T00:33:37.487Z,17.66
2022-09-15T00:36:07.271Z,17.56
2022-09-15T00:38:35.316Z,17.47
2022-09-15T00:41:02.570Z,17.63
2022-09-15T00:43:45.325Z,17.56
2022-09-15T00:46:13.084Z,17.33
2022-09-15T00:48:45.373Z,17.58
2022-09-15T00:51:15.524Z,17.66
2022-09-15T00:53:42.883Z,17.47
2022-09-15T00:56:12.549Z,17.55
2022-09-15T00:58:45.393Z,17.57
2022-09-15T01:01:13.629Z,17.58
2022-09-15T01:03:40.539Z,17.66
2022-09-15T01:06:44.480Z,17.66
2022-09-15T01:09:23.810Z,17.55
2022-09-15T01:11:51.082Z,17.53
2022-09-15T01:14:17.730Z,17.62
2022-09-15T01:16:50.402Z,17.67
2022-09-15T01:19:23.317Z,17.48
2022-09-15T01:22:25.925Z,17.60
2022-09-15T01:25:01.584Z,17.50
2022-09-15T01:28:16.433Z,17.28
2022-09-15T01:30:51.131Z,17.35
2022-09-15T01:33:32.264Z,17.44
2022-09-15T01:36:15.159Z,17.24
2022-09-15T01:38:54.037Z,17.13
2022-09-15T01:41:26.569Z,17.07
2022-09-15T01:44:10.112Z,17.20
2022-09-15T01:46:44.950Z,17.05
2022-09-15T01:49:15.722Z,17.17
2022-09-15T01:51:43.964Z,17.17
2022-09-15T01:54:11.385Z,17.30
2022-09-15T01:56:39.281Z,17.24
2022-09-15T01:59:06.086Z,17.27
2022-09-15T02:01:40.699Z,17.34
2022-09-15T02:04:18.010Z,17.06
2022-09-15T02:06:55.432Z,17.06
2022-09-15T02:09:27.337Z,16.97
2022-09-15T02:12:21.103Z,17.11
2022-09-15T02:14:52.803Z,17.19
2022-09-15T02:17:21.678Z,17.19
2022-09-15T02:19:57.024Z,17.10
2022-09-15T02:22:30.841Z,17.14
2022-09-15T02:25:00.051Z,17.04
2022-09-15T02:27:30.268Z,17.06
2022-09-15T02:30:03.132Z,17.09
2022-09-15T02:32:31.100Z,17.03
2022-09-15T02:34:59.136Z,17.04
2022-09-15T02:37:27.474Z,17.12
2022-09-15T02:39:59.180Z,17.06
2022-09-15T02:42:27.956Z,17.09
2022-09-15T02:44:55.213Z,17.08
2022-09-15T02:47:22.208Z,17.07
2022-09-15T02:49:48.850Z,16.98
2022-09-15T02:52:18.177Z,17.08
2022-09-15T02:54:44.839Z,17.16
2022-09-15T02:57:11.546Z,17.17
2022-09-15T02:59:56.939Z,17.09
2022-09-15T03:02:25.424Z,17.09
2022-09-15T03:04:52.276Z,17.14
2022-09-15T03:07:19.521Z,17.17
2022-09-15T03:09:46.661Z,17.10
2022-09-15T03:12:13.807Z,17.16
2022-09-15T03:14:40.333Z,17.07
2022-09-15T03:17:06.917Z,17.20
2022-09-15T03:19:33.437Z,17.14
2022-09-15T03:21:59.993Z,17.16
2022-09-15T03:24:26.723Z,17.17
2022-09-15T03:26:53.467Z,17.22
2022-09-15T03:29:20.062Z,17.12
2022-09-15T03:31:46.754Z,16.97
2022-09-15T03:34:13.293Z,17.09
2022-09-15T03:36:39.933Z,17.08
2022-09-15T03:39:06.684Z,16.95
2022-09-15T03:41:33.275Z,16.98
2022-09-15T03:43:59.884Z,16.81
2022-09-15T03:46:26.462Z,16.89
2022-09-15T03:48:53.049Z,16.89
2022-09-15T03:51:19.634Z,16.88
2022-09-15T03:53:46.258Z,16.86
2022-09-15T03:56:25.837Z,16.88
2022-09-15T03:58:53.382Z,16.88
2022-09-15T04:01:21.168Z,16.91
2022-09-15T04:03:51.061Z,17.00
2022-09-15T04:06:20.346Z,16.99
2022-09-15T04:08:47.649Z,16.99
2022-09-15T04:11:15.232Z,16.97
2022-09-15T04:13:42.927Z,16.85
2022-09-15T04:16:13.097Z,16.77
2022-09-15T04:18:40.193Z,16.89
2022-09-15T04:21:09.191Z,16.86
2022-09-15T04:23:35.799Z,16.80
2022-09-15T04:26:05.610Z,16.85
2022-09-15T04:28:35.023Z,16.89
2022-09-15T04:31:10.674Z,16.91
2022-09-15T04:33:38.853Z,16.80
2022-09-15T04:36:08.798Z,16.86
2022-09-15T04:38:35.928Z,16.79
2022-09-15T04:41:04.080Z,16.79
2022-09-15T04:43:31.827Z,16.94
2022-09-15T04:45:58.635Z,16.89
2022-09-15T04:48:25.934Z,16.89
2022-09-15T04:50:53.282Z,16.87
2022-09-15T04:53:20.106Z,16.92
2022-09-15T04:55:46.766Z,16.97
2022-09-15T04:58:13.321Z,17.00
2022-09-15T05:00:43.531Z,16.96
2022-09-15T05:03:14.134Z,17.04
2022-09-15T05:05:41.285Z,17.08
2022-09-15T05:08:08.314Z,17.11
2022-09-15T05:10:35.096Z,17.00
2022-09-15T05:13:03.747Z,16.99
2022-09-15T05:15:30.350Z,16.94
2022-09-15T05:17:58.194Z,16.68
2022-09-15T05:20:24.713Z,16.75
2022-09-15T05:22:51.267Z,16.79
2022-09-15T05:25:18.454Z,16.87
2022-09-15T05:27:45.029Z,16.92
2022-09-15T05:32:58.640Z,16.98
2022-09-15T05:35:25.684Z,16.84
2022-09-15T05:37:52.234Z,16.87
2022-09-15T05:40:21.915Z,16.81
2022-09-15T05:42:48.500Z,16.98
2022-09-15T05:45:15.250Z,16.98
2022-09-15T05:47:41.844Z,16.98
2022-09-15T05:50:08.765Z,16.91
2022-09-15T05:52:35.753Z,16.89
2022-09-15T05:55:02.348Z,16.96
2022-09-15T05:57:28.899Z,17.01
2022-09-15T05:59:55.563Z,16.89
2022-09-15T06:02:22.187Z,16.94
2022-09-15T06:04:48.771Z,17.01
2022-09-15T06:07:16.631Z,16.98
2022-09-15T06:09:43.403Z,16.88
2022-09-15T06:12:09.994Z,16.87
2022-09-15T06:14:36.535Z,16.99
2022-09-15T06:17:03.101Z,16.90
2022-09-15T06:19:29.686Z,16.70
2022-09-15T06:21:56.227Z,16.66
2022-09-15T06:24:22.813Z,16.88
2022-09-15T06:26:49.474Z,16.77
2022-09-15T06:29:16.047Z,16.72
2022-09-15T06:31:42.717Z,16.70
2022-09-15T06:34:11.305Z,16.73
2022-09-15T06:36:38.872Z,16.91
2022-09-15T06:39:05.495Z,16.78
2022-09-15T06:41:58.471Z,16.74
2022-09-15T06:44:19.899Z,16.78
2022-09-15T06:46:46.642Z,16.81
2022-09-15T06:49:13.228Z,16.70
2022-09-15T06:51:39.988Z,16.79
2022-09-15T06:54:06.633Z,16.87
2022-09-15T06:56:37.878Z,16.94
2022-09-15T06:59:05.102Z,16.80
2022-09-15T07:01:32.367Z,16.95
2022-09-15T07:04:01.317Z,16.92
2022-09-15T07:06:29.629Z,16.91
2022-09-15T07:08:57.241Z,16.90
2022-09-15T07:11:24.420Z,17.08
2022-09-15T07:13:51.427Z,16.99
2022-09-15T07:16:19.398Z,17.13
2022-09-15T07:18:47.259Z,17.12
2022-09-15T07:21:16.802Z,17.14
2022-09-15T07:23:43.932Z,17.08
2022-09-15T07:26:18.281Z,17.20
2022-09-15T07:28:47.866Z,17.22
2022-09-15T07:31:17.105Z,17.20
2022-09-15T07:33:44.532Z,17.18
2022-09-15T07:36:11.344Z,17.30
2022-09-15T07:38:47.915Z,17.34
2022-09-15T07:41:23.073Z,17.30
2022-09-15T07:43:51.972Z,17.35
2022-09-15T07:46:19.353Z,17.39
2022-09-15T07:48:51.232Z,17.47
2022-09-15T07:51:18.278Z,17.52
2022-09-15T07:53:46.818Z,17.50
2022-09-15T07:56:13.467Z,17.56
2022-09-15T07:58:40.197Z,17.57
2022-09-15T08:01:11.524Z,17.54
2022-09-15T08:03:42.893Z,17.52
2022-09-15T08:06:10.787Z,17.57
2022-09-15T08:08:41.202Z,17.60
2022-09-15T08:11:19.280Z,17.46
2022-09-15T08:13:47.755Z,17.35
2022-09-15T08:16:17.418Z,17.50
2022-09-15T08:18:44.558Z,17.53
2022-09-15T08:21:14.933Z,17.48
2022-09-15T08:23:41.947Z,17.42
2022-09-15T08:26:13.798Z,17.44
2022-09-15T08:28:42.214Z,17.54
2022-09-15T08:31:11.822Z,17.44
2022-09-15T08:33:44.578Z,17.50
2022-09-15T08:36:12.495Z,17.57
2022-09-15T08:38:40.702Z,17.42
2022-09-15T08:41:24.819Z,17.55
2022-09-15T08:44:08.499Z,17.52
2022-09-15T08:46:41.262Z,17.63
2022-09-15T08:49:40.992Z,17.55
2022-09-15T08:52:35.765Z,17.72
2022-09-15T08:55:11.262Z,17.77
2022-09-15T08:57:37.909Z,17.83
2022-09-15T09:00:05.112Z,17.79
2022-09-15T09:02:44.435Z,17.77
2022-09-15T09:05:41.970Z,17.88
2022-09-15T09:08:43.872Z,17.96
2022-09-15T09:11:36.545Z,17.96
2022-09-15T09:14:29.388Z,18.06
2022-09-15T09:16:58.701Z,18.04
2022-09-15T09:19:50.108Z,18.11
2022-09-15T09:22:32.403Z,18.15
2022-09-15T09:25:11.699Z,18.23
2022-09-15T09:27:48.685Z,18.20
2022-09-15T09:30:17.799Z,18.29
2022-09-15T09:32:56.193Z,18.19
2022-09-15T09:35:25.352Z,18.30
2022-09-15T09:37:53.481Z,18.35
2022-09-15T09:40:20.584Z,18.36
2022-09-15T09:42:47.368Z,18.43
2022-09-15T09:45:16.281Z,18.53
2022-09-15T09:47:43.240Z,18.51
2022-09-15T09:50:43.101Z,18.61
2022-09-15T09:53:31.243Z,18.64
2022-09-15T09:56:25.148Z,18.60
2022-09-15T09:58:52.690Z,18.59
2022-09-15T10:01:21.600Z,18.43
2022-09-15T10:03:48.285Z,18.48
2022-09-15T10:06:18.998Z,18.40
2022-09-15T10:09:18.521Z,18.48
2022-09-15T10:11:49.688Z,18.63
2022-09-15T10:14:39.679Z,18.61
2022-09-15T10:17:13.221Z,18.69
2022-09-15T10:19:39.671Z,18.74
2022-09-15T10:22:06.300Z,18.73
2022-09-15T10:24:36.059Z,18.59
2022-09-15T10:27:07.983Z,18.61
2022-09-15T10:29:39.741Z,18.93
2022-09-15T10:32:28.981Z,18.98
2022-09-15T10:35:15.834Z,18.58
2022-09-15T10:37:45.467Z,18.67
2022-09-15T10:40:36.652Z,18.89
2022-09-15T10:43:24.742Z,18.76
2022-09-15T10:46:12.842Z,18.83
2022-09-15T10:48:43.898Z,18.74
2022-09-15T10:51:21.657Z,18.75
2022-09-15T10:53:57.694Z,18.92
2022-09-15T10:56:53.634Z,19.04
2022-09-15T10:59:45.847Z,19.05
2022-09-15T11:02:33.181Z,19.03
2022-09-15T11:05:22.521Z,18.92
2022-09-15T11:08:13.165Z,18.92
2022-09-15T11:10:50.457Z,18.84
2022-09-15T11:13:52.435Z,18.83
2022-09-15T11:16:34.099Z,18.92
2022-09-15T11:19:19.274Z,18.78
2022-09-15T11:21:50.387Z,18.75
2022-09-15T11:24:31.884Z,18.84
2022-09-15T11:27:41.820Z,18.95
2022-09-15T11:30:47.528Z,19.02
2022-09-15T11:33:20.425Z,19.02
2022-09-15T11:35:53.746Z,19.03
2022-09-15T11:38:26.616Z,18.99
2022-09-15T11:41:13.665Z,18.62
2022-09-15T11:43:53.731Z,18.51
2022-09-15T11:46:31.939Z,18.58
2022-09-15T11:49:16.271Z,18.63
2022-09-15T11:52:22.605Z,18.39
2022-09-15T11:55:13.133Z,18.66
2022-09-15T11:57:48.966Z,18.85
2022-09-15T12:00:16.108Z,18.82
2022-09-15T12:02:56.678Z,18.98
2022-09-15T12:05:32.067Z,18.64
2022-09-15T12:08:04.753Z,18.61
2022-09-15T12:10:40.342Z,18.77
2022-09-15T12:13:11.092Z,18.82
2022-09-15T12:15:38.255Z,19.19
2022-09-15T12:18:39.270Z,19.04
2022-09-15T12:21:14.551Z,19.28
2022-09-15T12:23:46.067Z,19.34
2022-09-15T12:26:17.543Z,19.29
2022-09-15T12:28:47.015Z,19.07
2022-09-15T12:31:28.068Z,19.14
2022-09-15T12:33:59.210Z,18.91
2022-09-15T12:36:44.165Z,19.10
2022-09-15T12:39:41.531Z,19.18
2022-09-15T12:42:15.058Z,18.92
2022-09-15T12:44:43.253Z,19.09
2022-09-15T12:47:24.377Z,18.99
2022-09-15T12:49:52.903Z,19.02
2022-09-15T12:52:21.697Z,18.89
2022-09-15T12:55:00.846Z,18.83
2022-09-15T12:57:36.554Z,19.03
2022-09-15T13:00:22.669Z,19.04
2022-09-15T13:02:52.591Z,19.11
2022-09-15T13:05:41.425Z,19.37
2022-09-15T13:08:31.567Z,19.22
2022-09-15T13:11:23.449Z,19.39
2022-09-15T13:13:51.960Z,19.32
2022-09-15T13:16:26.186Z,19.41
2022-09-15T13:19:11.983Z,19.42
2022-09-15T13:21:42.302Z,19.13
2022-09-15T13:24:17.474Z,19.55
2022-09-15T13:26:47.707Z,19.67
2022-09-15T13:29:16.673Z,19.53
2022-09-15T13:31:53.333Z,19.62
2022-09-15T13:41:05.402Z,19.02
2022-09-15T13:44:02.450Z,19.20
2022-09-15T13:46:56.894Z,19.19
2022-09-15T13:49:26.493Z,19.20
2022-09-15T13:52:12.707Z,19.18
2022-09-15T13:55:18.828Z,19.19
2022-09-15T14:00:53.711Z,19.32
2022-09-15T14:03:43.119Z,19.34
2022-09-15T14:06:16.882Z,19.23
2022-09-15T14:08:47.564Z,19.14
2022-09-15T14:11:17.128Z,19.31
2022-09-15T14:13:47.271Z,19.39
2022-09-15T14:16:30.961Z,19.26
2022-09-15T14:18:58.554Z,19.00
2022-09-15T14:21:27.846Z,18.88
2022-09-15T14:23:58.561Z,18.80
2022-09-15T14:26:28.449Z,18.53
2022-09-15T14:28:59.230Z,18.72
2022-09-15T14:31:34.213Z,18.95
2022-09-15T14:34:02.651Z,19.10
2022-09-15T14:36:31.887Z,19.10
2022-09-15T14:39:17.920Z,18.71
2022-09-15T14:41:45.465Z,18.24
2022-09-15T14:45:55.258Z,18.38
2022-09-15T14:47:19.459Z,17.94
2022-09-15T14:49:46.230Z,18.07
2022-09-15T14:52:35.832Z,18.44
2022-09-15T14:55:06.059Z,18.20
2022-09-15T14:57:36.854Z,18.17
2022-09-15T15:00:08.251Z,17.98
2022-09-15T15:02:59.991Z,18.02
2022-09-15T15:05:35.494Z,18.11
2022-09-15T15:08:06.790Z,17.57
2022-09-15T15:10:36.025Z,17.90
2022-09-15T15:13:09.114Z,18.21
2022-09-15T15:15:38.442Z,18.21
2022-09-15T15:18:31.650Z,18.23
2022-09-15T15:20:58.976Z,18.32
2022-09-15T15:23:26.393Z,18.38
2022-09-15T15:25:53.917Z,18.29
2022-09-15T15:28:34.534Z,18.28
2022-09-15T15:31:19.412Z,18.24
2022-09-15T15:33:59.348Z,18.22
2022-09-15T15:36:30.209Z,18.30
2022-09-15T15:39:00.603Z,18.23
2022-09-15T15:41:28.410Z,18.32
2022-09-15T15:44:07.702Z,18.34
2022-09-15T15:46:58.752Z,18.33
2022-09-15T15:49:27.450Z,18.07
2022-09-15T15:51:55.465Z,17.96
2022-09-15T15:54:23.186Z,17.98
2022-09-15T15:56:50.409Z,17.85
2022-09-15T15:59:17.478Z,17.85
2022-09-15T16:01:53.140Z,17.82
2022-09-15T16:04:20.119Z,17.71
2022-09-15T16:06:47.633Z,17.69
2022-09-15T16:09:17.310Z,17.44
2022-09-15T16:11:43.963Z,17.10
2022-09-15T16:14:14.326Z,16.86
2022-09-15T16:16:41.130Z,16.70
2022-09-15T16:19:08.619Z,16.53
2022-09-15T16:21:38.714Z,16.52
2022-09-15T16:24:07.065Z,16.90
2022-09-15T16:26:35.913Z,16.99
2022-09-15T16:29:02.641Z,16.48
2022-09-15T16:31:29.612Z,16.46
2022-09-15T16:33:56.595Z,16.49
2022-09-15T16:36:23.248Z,16.70
2022-09-15T16:38:49.917Z,16.52
2022-09-15T16:41:19.823Z,16.39
2022-09-15T16:43:47.357Z,16.41
2022-09-15T16:46:14.821Z,16.34
2022-09-15T16:48:42.944Z,16.31
2022-09-15T16:51:29.972Z,16.36
2022-09-15T16:53:58.184Z,15.62
2022-09-15T16:56:24.843Z,15.66
2022-09-15T16:58:58.754Z,15.45
2022-09-15T17:01:26.893Z,15.38
2022-09-15T17:03:53.589Z,15.67
2022-09-15T17:06:22.126Z,15.65
2022-09-15T17:08:48.959Z,16.09
2022-09-15T17:11:18.347Z,15.69
2022-09-15T17:13:45.589Z,15.74
2022-09-15T17:16:19.366Z,15.76
2022-09-15T17:18:47.132Z,15.55
2022-09-15T17:21:16.035Z,15.72
2022-09-15T17:23:48.125Z,15.88
2022-09-15T17:26:20.936Z,15.95
2022-09-15T17:28:47.945Z,16.08
2022-09-15T17:31:17.598Z,16.11
2022-09-15T17:33:44.898Z,16.12
2022-09-15T17:36:11.684Z,16.21
2022-09-15T17:38:40.697Z,16.26
2022-09-15T17:41:13.494Z,16.20
2022-09-15T17:43:40.032Z,16.22
2022-09-15T17:46:07.880Z,16.24
2022-09-15T17:48:36.909Z,16.27
2022-09-15T17:51:03.431Z,16.13
2022-09-15T17:53:31.031Z,16.12
2022-09-15T17:55:57.774Z,16.17
2022-09-15T17:58:26.639Z,16.21
2022-09-15T18:00:53.920Z,16.21
2022-09-15T18:03:28.034Z,16.22
2022-09-15T18:05:56.565Z,16.23
2022-09-15T18:08:23.313Z,16.20
2022-09-15T18:10:50.766Z,16.10
2022-09-15T18:13:23.587Z,16.16
2022-09-15T18:15:50.658Z,16.17
2022-09-15T18:18:20.110Z,16.17
2022-09-15T18:20:47.399Z,16.17
2022-09-15T18:23:16.466Z,16.16
2022-09-15T18:25:44.002Z,16.14
2022-09-15T18:28:10.830Z,16.15
2022-09-15T18:30:43.716Z,15.96
2022-09-15T18:33:21.507Z,16.01
2022-09-15T18:35:50.272Z,16.00
2022-09-15T18:38:17.299Z,16.03
2022-09-15T18:40:55.966Z,16.01
2022-09-15T18:43:25.180Z,16.01
2022-09-15T18:45:53.250Z,16.01
2022-09-15T18:48:19.999Z,16.02
2022-09-15T18:50:46.661Z,16.01
2022-09-15T18:53:13.421Z,16.00
2022-09-15T18:55:41.326Z,15.96
2022-09-15T18:58:08.252Z,15.96
2022-09-15T19:00:34.931Z,15.97
2022-09-15T19:03:03.209Z,15.94
2022-09-15T19:05:30.364Z,15.96
2022-09-15T19:07:57.355Z,15.95
2022-09-15T19:10:25.564Z,15.93
2022-09-15T19:12:52.366Z,15.93
2022-09-15T19:15:23.611Z,15.92
2022-09-15T19:17:51.154Z,15.92
2022-09-15T19:20:17.815Z,15.90
2022-09-15T19:22:44.460Z,15.88
2022-09-15T19:25:11.612Z,15.87
2022-09-15T19:27:39.892Z,15.86
2022-09-15T19:30:09.953Z,15.85
2022-09-15T19:32:42.851Z,15.83
2022-09-15T19:35:11.288Z,15.83
2022-09-15T19:37:40.507Z,15.82
2022-09-15T19:40:09.958Z,15.81
2022-09-15T19:42:38.612Z,15.80
2022-09-15T19:45:06.364Z,15.89
2022-09-15T19:47:32.945Z,15.87
2022-09-15T19:49:59.580Z,15.84
2022-09-15T19:52:26.911Z,15.82
2022-09-15T19:54:53.461Z,15.78
2022-09-15T19:57:21.181Z,15.79
2022-09-15T19:59:48.033Z,15.77
2022-09-15T20:02:14.597Z,15.76
2022-09-15T20:04:41.145Z,15.75
2022-09-15T20:07:07.775Z,15.75
2022-09-15T20:09:34.561Z,16.22
2022-09-15T20:12:04.027Z,15.92
2022-09-15T20:14:31.437Z,15.84
2022-09-15T20:17:01.051Z,15.80
2022-09-15T20:19:28.301Z,15.78
2022-09-15T20:21:54.952Z,15.76
2022-09-15T20:24:22.414Z,15.73
2022-09-15T20:26:49.521Z,15.73
2022-09-15T20:29:16.332Z,15.71
2022-09-15T20:31:43.684Z,15.67
2022-09-15T20:34:10.499Z,15.66
2022-09-15T20:36:39.045Z,15.66
2022-09-15T20:39:10.526Z,15.66
2022-09-15T20:41:37.530Z,15.65
2022-09-15T20:44:06.020Z,15.64
2022-09-15T20:46:33.625Z,15.62
2022-09-15T20:49:00.432Z,15.60
2022-09-15T20:51:31.480Z,15.58
2022-09-15T20:53:59.473Z,15.58
2022-09-15T20:56:28.649Z,15.57
2022-09-15T20:58:57.233Z,15.56
2022-09-15T21:01:28.796Z,15.55
2022-09-15T21:03:56.099Z,15.54
2022-09-15T21:06:25.449Z,15.51
2022-09-15T21:08:53.219Z,15.50
2022-09-15T21:11:21.753Z,15.49
2022-09-15T21:13:49.346Z,15.47
2022-09-15T21:16:18.551Z,15.46
2022-09-15T21:18:45.531Z,15.44
2022-09-15T21:21:15.890Z,15.41
2022-09-15T21:23:46.599Z,15.40
2022-09-15T21:26:16.210Z,15.36
2022-09-15T21:28:43.919Z,15.37
2022-09-15T21:31:16.707Z,15.33
2022-09-15T21:33:44.523Z,15.36
2022-09-15T21:36:22.450Z,15.35
2022-09-15T21:38:50.976Z,15.34
2022-09-15T21:41:23.416Z,15.33
2022-09-15T21:43:55.021Z,15.32
2022-09-15T21:46:24.539Z,15.33
2022-09-15T21:48:51.899Z,15.29
2022-09-15T21:51:24.644Z,15.29
2022-09-15T21:53:53.711Z,15.25
2022-09-15T21:56:20.964Z,15.25
2022-09-15T21:58:47.742Z,15.21
2022-09-15T22:01:18.931Z,15.25
2022-09-15T22:03:56.958Z,15.24
2022-09-15T22:06:30.294Z,15.22
2022-09-15T22:09:00.652Z,15.20
2022-09-15T22:11:27.660Z,15.20
2022-09-15T22:13:54.502Z,15.20
2022-09-15T22:16:23.576Z,15.18
2022-09-15T22:18:51.284Z,15.17
2022-09-15T22:21:19.069Z,15.17
2022-09-15T22:23:46.969Z,15.16
2022-09-15T22:26:34.884Z,15.17
2022-09-15T22:29:02.306Z,15.13
2022-09-15T22:31:29.500Z,15.14
2022-09-15T22:33:56.500Z,15.12
2022-09-15T22:36:29.181Z,15.12
2022-09-15T22:38:57.042Z,15.13
2022-09-15T22:41:25.873Z,15.11
2022-09-15T22:43:52.524Z,15.11
2022-09-15T22:46:19.982Z,15.11
2022-09-15T22:48:47.162Z,15.09
2022-09-15T22:51:14.784Z,15.09
2022-09-15T22:53:42.437Z,15.09
2022-09-15T22:56:20.706Z,15.09
2022-09-15T22:58:50.259Z,15.07
2022-09-15T23:01:22.171Z,15.07
2022-09-15T23:03:53.487Z,15.06
2022-09-15T23:06:21.342Z,15.06
2022-09-15T23:08:53.072Z,15.06
2022-09-15T23:11:20.415Z,15.05
2022-09-15T23:13:47.397Z,15.04
2022-09-15T23:16:17.339Z,15.01
2022-09-15T23:18:44.770Z,14.99
2022-09-15T23:21:12.621Z,15.02
2022-09-15T23:23:41.526Z,15.02
2022-09-15T23:26:10.400Z,15.01
2022-09-15T23:28:39.039Z,15.00
2022-09-15T23:31:06.323Z,14.99
2022-09-15T23:33:33.095Z,14.95
2022-09-15T23:36:01.306Z,14.95
2022-09-15T23:38:28.241Z,14.96
2022-09-15T23:40:54.917Z,14.96
2022-09-15T23:43:21.489Z,14.96
2022-09-15T23:45:48.255Z,14.94
2022-09-15T23:48:14.900Z,14.94
2022-09-15T23:50:41.723Z,14.94
2022-09-15T23:53:08.620Z,14.94
2022-09-15T23:55:35.273Z,14.92
2022-09-15T23:58:02.398Z,14.90
